createdAt,value
2022-12-01T00:01:07.884Z,10.40
2022-12-01T00:03:35.142Z,10.40
2022-12-01T00:06:07.752Z,10.40
2022-12-01T00:08:34.588Z,10.30
2022-12-01T00:11:10.403Z,10.30
2022-12-01T00:13:37.222Z,10.40
2022-12-01T00:16:13.938Z,10.30
2022-12-01T00:18:40.681Z,10.30
2022-12-01T00:21:14.023Z,10.30
2022-12-01T00:23:47.416Z,10.40
2022-12-01T00:26:14.867Z,10.30
2022-12-01T00:28:41.642Z,10.30
2022-12-01T00:31:09.390Z,10.30
2022-12-01T00:33:36.693Z,10.30
2022-12-01T00:36:04.382Z,10.40
2022-12-01T00:38:32.281Z,10.30
2022-12-01T00:40:58.841Z,10.30
2022-12-01T00:43:25.475Z,10.30
2022-12-01T00:45:52.210Z,10.30
2022-12-01T00:48:20.862Z,10.30
2022-12-01T00:50:48.743Z,10.30
2022-12-01T00:53:15.323Z,10.30
2022-12-01T00:55:41.894Z,10.30
2022-12-01T00:58:08.533Z,10.30
2022-12-01T01:00:38.544Z,10.30
2022-12-01T01:03:07.045Z,10.30
2022-12-01T01:05:40.635Z,10.30
2022-12-01T01:08:12.113Z,10.30
2022-12-01T01:10:40.309Z,10.30
2022-12-01T01:13:07.019Z,10.30
2022-12-01T01:15:34.220Z,10.30
2022-12-01T01:18:01.695Z,10.30
2022-12-01T01:20:28.420Z,10.30
2022-12-01T01:22:55.137Z,10.30
2022-12-01T01:25:22.640Z,10.30
2022-12-01T01:27:49.449Z,10.30
2022-12-01T01:30:16.564Z,10.30
2022-12-01T01:32:43.173Z,10.20
2022-12-01T01:35:10.105Z,10.30
2022-12-01T01:37:36.741Z,10.20
2022-12-01T01:40:03.611Z,10.20
2022-12-01T01:42:30.232Z,10.30
2022-12-01T01:44:58.697Z,10.30
2022-12-01T01:47:32.704Z,10.30
2022-12-01T01:50:06.418Z,10.30
2022-12-01T01:52:35.866Z,10.30
2022-12-01T01:55:02.749Z,10.30
2022-12-01T01:57:33.211Z,10.30
2022-12-01T02:00:08.647Z,10.30
2022-12-01T02:02:44.649Z,10.30
2022-12-01T02:05:23.524Z,10.30
2022-12-01T02:07:52.445Z,10.30
2022-12-01T02:10:22.632Z,10.30
2022-12-01T02:13:22.904Z,10.20
2022-12-01T02:16:14.264Z,10.30
2022-12-01T02:19:10.025Z,10.30
2022-12-01T02:21:42.037Z,10.30
2022-12-01T02:24:50.084Z,10.30
2022-12-01T02:27:30.660Z,10.30
2022-12-01T02:30:09.688Z,10.30
2022-12-01T02:33:06.204Z,10.30
2022-12-01T02:35:40.313Z,10.30
2022-12-01T02:38:29.681Z,10.30
2022-12-01T02:41:19.854Z,10.30
2022-12-01T02:44:04.815Z,10.30
2022-12-01T02:46:37.379Z,10.30
2022-12-01T02:49:11.595Z,10.30
2022-12-01T02:51:41.124Z,10.30
2022-12-01T02:54:08.650Z,10.30
2022-12-01T02:56:35.233Z,10.30
2022-12-01T02:59:01.944Z,10.30
2022-12-01T03:01:54.705Z,10.30
2022-12-01T03:04:38.876Z,10.20
2022-12-01T03:07:39.501Z,10.30
2022-12-01T03:10:33.902Z,10.30
2022-12-01T03:13:42.178Z,10.30
2022-12-01T03:16:18.219Z,10.30
2022-12-01T03:19:04.519Z,10.30
2022-12-01T03:21:44.346Z,10.20
2022-12-01T03:24:15.259Z,10.20
2022-12-01T03:26:47.083Z,10.20
2022-12-01T03:29:20.193Z,10.20
2022-12-01T03:31:59.895Z,10.20
2022-12-01T03:34:59.972Z,10.20
2022-12-01T03:37:33.467Z,10.20
2022-12-01T03:40:01.966Z,10.20
2022-12-01T03:42:40.598Z,10.20
2022-12-01T03:45:11.837Z,10.20
2022-12-01T03:47:40.379Z,10.20
2022-12-01T03:50:13.315Z,10.20
2022-12-01T03:52:52.054Z,10.20
2022-12-01T03:55:25.204Z,10.20
2022-12-01T03:58:15.313Z,10.30
2022-12-01T04:00:43.642Z,10.20
2022-12-01T04:03:17.820Z,10.20
2022-12-01T04:05:44.542Z,10.20
2022-12-01T04:08:11.232Z,10.20
2022-12-01T04:10:37.841Z,10.20
2022-12-01T04:13:04.470Z,10.20
2022-12-01T04:15:31.096Z,10.20
2022-12-01T04:17:57.734Z,10.20
2022-12-01T04:20:24.357Z,10.20
2022-12-01T04:22:50.996Z,10.20
2022-12-01T04:25:17.660Z,10.20
2022-12-01T04:27:44.272Z,10.20
2022-12-01T04:30:11.325Z,10.20
2022-12-01T04:32:42.139Z,10.20
2022-12-01T04:35:10.746Z,10.20
2022-12-01T04:37:38.046Z,10.20
2022-12-01T04:40:05.741Z,10.20
2022-12-01T04:42:32.354Z,10.20
2022-12-01T04:44:58.917Z,10.20
2022-12-01T04:47:25.531Z,10.20
2022-12-01T04:49:52.358Z,10.20
2022-12-01T04:52:18.986Z,10.20
2022-12-01T04:54:45.552Z,10.20
2022-12-01T04:57:12.145Z,10.20
2022-12-01T04:59:38.723Z,10.20
2022-12-01T05:02:05.350Z,10.20
2022-12-01T05:04:33.869Z,10.20
2022-12-01T05:07:00.575Z,10.30
2022-12-01T05:09:27.178Z,10.20
2022-12-01T05:11:53.820Z,10.20
2022-12-01T05:14:20.392Z,10.20
2022-12-01T05:16:47.069Z,10.20
2022-12-01T05:19:32.561Z,10.20
2022-12-01T05:21:59.172Z,10.20
2022-12-01T05:24:25.743Z,10.20
2022-12-01T05:26:52.351Z,10.20
2022-12-01T05:29:19.089Z,10.20
2022-12-01T05:31:46.543Z,10.20
2022-12-01T05:34:13.804Z,10.20
2022-12-01T05:36:40.426Z,10.20
2022-12-01T05:39:07.032Z,10.20
2022-12-01T05:41:33.744Z,10.20
2022-12-01T05:44:00.415Z,10.20
2022-12-01T05:46:27.085Z,10.20
2022-12-01T05:48:53.792Z,10.30
2022-12-01T05:51:20.568Z,10.30
2022-12-01T05:53:47.262Z,10.30
2022-12-01T05:56:13.868Z,10.20
2022-12-01T05:58:40.685Z,10.20
2022-12-01T06:01:07.543Z,10.20
2022-12-01T06:03:34.811Z,10.20
2022-12-01T06:06:01.781Z,10.30
2022-12-01T06:08:28.365Z,10.30
2022-12-01T06:10:54.993Z,10.30
2022-12-01T06:13:21.691Z,10.30
2022-12-01T06:15:59.517Z,10.30
2022-12-01T06:18:32.023Z,10.20
2022-12-01T06:20:58.606Z,10.30
2022-12-01T06:23:30.027Z,10.30
2022-12-01T06:25:57.111Z,10.20
2022-12-01T06:28:24.236Z,10.20
2022-12-01T06:30:50.856Z,10.20
2022-12-01T06:33:17.862Z,10.20
2022-12-01T06:35:44.527Z,10.20
2022-12-01T06:38:11.118Z,10.20
2022-12-01T06:40:37.769Z,10.30
2022-12-01T06:43:04.433Z,10.20
2022-12-01T06:45:31.461Z,10.20
2022-12-01T06:47:58.267Z,10.20
2022-12-01T06:50:26.633Z,10.30
2022-12-01T06:52:53.714Z,10.20
2022-12-01T06:55:20.411Z,10.20
2022-12-01T06:57:47.317Z,10.30
2022-12-01T07:00:14.746Z,10.30
2022-12-01T07:02:41.821Z,10.30
2022-12-01T07:05:10.231Z,10.30
2022-12-01T07:07:38.728Z,10.30
2022-12-01T07:10:06.802Z,10.20
2022-12-01T07:12:33.439Z,10.20
2022-12-01T07:15:00.131Z,10.30
2022-12-01T07:17:26.693Z,10.30
2022-12-01T07:19:53.460Z,10.30
2022-12-01T07:22:20.040Z,10.30
2022-12-01T07:24:46.713Z,10.30
2022-12-01T07:27:13.316Z,10.30
2022-12-01T07:29:39.939Z,10.30
2022-12-01T07:32:06.665Z,10.30
2022-12-01T07:34:33.295Z,10.30
2022-12-01T07:36:59.906Z,10.30
2022-12-01T07:39:26.548Z,10.20
2022-12-01T07:41:53.158Z,10.20
2022-12-01T07:44:19.891Z,10.30
2022-12-01T07:46:46.533Z,10.30
2022-12-01T07:49:15.475Z,10.30
2022-12-01T07:51:42.159Z,10.30
2022-12-01T07:54:10.411Z,10.20
2022-12-01T07:56:37.482Z,10.20
2022-12-01T07:59:04.125Z,10.20
2022-12-01T08:01:30.851Z,10.30
2022-12-01T08:03:59.545Z,10.20
2022-12-01T08:06:26.896Z,10.20
2022-12-01T08:08:53.502Z,10.20
2022-12-01T08:11:22.749Z,10.30
2022-12-01T08:13:50.105Z,10.20
2022-12-01T08:16:20.429Z,10.30
2022-12-01T08:18:47.285Z,10.20
2022-12-01T08:21:16.433Z,10.30
2022-12-01T08:23:43.630Z,10.20
2022-12-01T08:26:18.560Z,10.30
2022-12-01T08:28:46.180Z,10.20
2022-12-01T08:31:32.969Z,10.30
2022-12-01T08:33:59.619Z,10.30
2022-12-01T08:36:26.407Z,10.30
2022-12-01T08:38:54.961Z,10.30
2022-12-01T08:41:22.072Z,10.30
2022-12-01T08:43:58.051Z,10.30
2022-12-01T08:46:26.550Z,10.30
2022-12-01T08:48:54.899Z,10.30
2022-12-01T08:51:21.556Z,10.20
2022-12-01T08:53:49.667Z,10.40
2022-12-01T08:56:26.424Z,10.60
2022-12-01T08:58:54.484Z,10.50
2022-12-01T09:01:21.762Z,10.40
2022-12-01T09:03:48.813Z,10.30
2022-12-01T09:06:20.172Z,10.30
2022-12-01T09:08:47.488Z,10.30
2022-12-01T09:11:17.952Z,10.30
2022-12-01T09:13:49.931Z,10.30
2022-12-01T09:16:19.798Z,10.30
2022-12-01T09:18:47.748Z,10.30
2022-12-01T09:21:23.451Z,10.30
2022-12-01T09:23:50.347Z,10.30
2022-12-01T09:26:19.060Z,10.30
2022-12-01T09:28:46.882Z,10.30
2022-12-01T09:31:15.454Z,10.30
2022-12-01T09:33:42.330Z,10.30
2022-12-01T09:36:10.391Z,10.30
2022-12-01T09:38:38.386Z,10.30
2022-12-01T09:41:19.995Z,10.30
2022-12-01T09:44:22.695Z,10.30
2022-12-01T09:47:03.608Z,10.30
2022-12-01T09:49:36.372Z,10.30
2022-12-01T09:52:03.159Z,10.30
2022-12-01T09:54:30.032Z,10.30
2022-12-01T09:56:59.416Z,10.30
2022-12-01T09:59:30.229Z,10.40
2022-12-01T10:02:03.504Z,10.40
2022-12-01T10:04:41.178Z,10.30
2022-12-01T10:07:23.877Z,10.30
2022-12-01T10:10:22.002Z,10.30
2022-12-01T10:12:48.670Z,10.30
2022-12-01T10:15:27.366Z,10.30
2022-12-01T10:18:22.078Z,10.30
2022-12-01T10:21:02.692Z,11.30
2022-12-01T10:23:44.207Z,10.90
2022-12-01T10:26:15.274Z,10.60
2022-12-01T10:28:54.207Z,10.50
2022-12-01T10:32:15.899Z,10.40
2022-12-01T10:34:43.146Z,10.40
2022-12-01T10:37:22.446Z,10.40
2022-12-01T10:39:52.154Z,10.30
2022-12-01T10:42:30.080Z,10.30
2022-12-01T10:45:00.643Z,10.30
2022-12-01T10:47:28.765Z,10.30
2022-12-01T10:49:56.014Z,10.30
2022-12-01T10:52:41.950Z,10.30
2022-12-01T10:55:31.847Z,10.30
2022-12-01T10:58:07.699Z,10.30
2022-12-01T11:03:30.365Z,10.20
2022-12-01T11:05:59.610Z,10.20
2022-12-01T11:08:36.151Z,10.20
2022-12-01T11:11:03.089Z,10.20
2022-12-01T11:13:33.708Z,10.20
2022-12-01T11:16:03.831Z,10.20
2022-12-01T11:18:38.324Z,10.10
2022-12-01T11:21:11.967Z,10.10
2022-12-01T11:23:47.320Z,10.10
2022-12-01T11:26:17.643Z,10.20
2022-12-01T11:29:05.638Z,10.20
2022-12-01T11:31:46.230Z,10.10
2022-12-01T11:34:34.455Z,10.10
2022-12-01T11:37:07.659Z,10.10
2022-12-01T11:39:38.212Z,10.20
2022-12-01T11:42:15.219Z,10.10
2022-12-01T11:44:53.426Z,10.10
2022-12-01T11:47:24.675Z,10.10
2022-12-01T11:50:01.303Z,10.10
2022-12-01T11:52:30.527Z,10.10
2022-12-01T11:55:10.036Z,10.10
2022-12-01T11:57:39.220Z,10.10
2022-12-01T12:00:24.207Z,10.10
2022-12-01T12:03:19.578Z,10.00
2022-12-01T12:09:13.391Z,10.10
2022-12-01T12:12:04.048Z,10.10
2022-12-01T12:14:53.333Z,10.10
2022-12-01T12:18:10.486Z,10.10
2022-12-01T12:20:53.724Z,10.10
2022-12-01T12:23:38.990Z,10.10
2022-12-01T12:26:49.032Z,10.10
2022-12-01T12:29:34.034Z,10.10
2022-12-01T12:32:28.071Z,10.10
2022-12-01T12:35:09.707Z,10.10
2022-12-01T12:38:01.716Z,10.10
2022-12-01T12:40:49.297Z,10.10
2022-12-01T12:43:24.280Z,10.10
2022-12-01T12:46:13.209Z,10.00
2022-12-01T12:49:25.528Z,10.00
2022-12-01T12:52:11.061Z,10.00
2022-12-01T12:54:50.477Z,10.00
2022-12-01T12:57:37.204Z,10.00
2022-12-01T13:00:13.544Z,10.00
2022-12-01T13:02:59.016Z,10.00
2022-12-01T13:05:40.387Z,9.90
2022-12-01T13:08:12.832Z,9.90
2022-12-01T13:10:51.798Z,10.00
2022-12-01T13:13:39.009Z,10.00
2022-12-01T13:16:12.282Z,9.90
2022-12-01T13:18:55.062Z,10.00
2022-12-01T13:21:23.931Z,10.00
2022-12-01T13:23:52.583Z,10.00
2022-12-01T13:26:20.863Z,10.00
2022-12-01T13:28:58.220Z,10.00
2022-12-01T13:31:25.206Z,9.90
2022-12-01T13:33:58.918Z,9.90
2022-12-01T13:39:29.462Z,9.80
2022-12-01T13:42:24.082Z,9.80
2022-12-01T13:45:18.429Z,9.80
2022-12-01T13:47:54.651Z,9.70
2022-12-01T13:50:48.446Z,9.70
2022-12-01T13:53:25.398Z,9.70
2022-12-01T13:56:03.971Z,9.80
2022-12-01T13:58:33.568Z,9.80
2022-12-01T14:01:22.884Z,9.80
2022-12-01T14:04:02.610Z,9.70
2022-12-01T14:06:49.695Z,9.80
2022-12-01T14:09:35.341Z,9.70
2022-12-01T14:12:05.968Z,9.70
2022-12-01T14:14:38.922Z,9.80
2022-12-01T14:17:05.996Z,9.70
2022-12-01T14:19:36.868Z,9.70
2022-12-01T14:22:06.649Z,9.80
2022-12-01T14:24:41.095Z,9.70
2022-12-01T14:27:10.933Z,9.70
2022-12-01T14:29:42.462Z,9.70
2022-12-01T14:32:09.083Z,9.70
2022-12-01T14:34:37.228Z,9.70
2022-12-01T14:37:35.262Z,9.70
2022-12-01T14:40:11.028Z,9.70
2022-12-01T14:43:02.856Z,9.70
2022-12-01T14:45:58.097Z,9.70
2022-12-01T14:48:34.636Z,9.70
2022-12-01T14:51:26.478Z,9.70
2022-12-01T14:53:55.875Z,9.70
2022-12-01T14:56:25.564Z,9.70
2022-12-01T14:58:58.302Z,9.70
2022-12-01T15:01:30.996Z,9.70
2022-12-01T15:04:00.409Z,9.70
2022-12-01T15:06:29.649Z,9.70
2022-12-01T15:12:02.264Z,9.70
2022-12-01T15:14:34.580Z,9.70
2022-12-01T15:17:04.961Z,9.70
2022-12-01T15:19:41.102Z,9.60
2022-12-01T15:22:17.886Z,9.70
2022-12-01T15:24:45.492Z,9.70
2022-12-01T15:27:30.012Z,9.70
2022-12-01T15:29:58.459Z,9.70
2022-12-01T15:32:25.911Z,9.70
2022-12-01T15:34:54.493Z,9.70
2022-12-01T15:37:23.003Z,9.70
2022-12-01T15:40:11.976Z,9.70
2022-12-01T15:42:43.043Z,9.70
2022-12-01T15:45:19.707Z,9.70
2022-12-01T15:47:49.525Z,9.70
2022-12-01T15:50:38.643Z,9.70
2022-12-01T15:53:49.319Z,9.70
2022-12-01T15:56:16.801Z,9.70
2022-12-01T15:58:46.844Z,9.70
2022-12-01T16:01:18.824Z,9.80
2022-12-01T16:03:53.697Z,9.70
2022-12-01T16:06:25.256Z,9.70
2022-12-01T16:08:55.993Z,9.70
2022-12-01T16:11:23.645Z,9.80
2022-12-01T16:14:00.360Z,9.80
2022-12-01T16:16:38.764Z,9.80
2022-12-01T16:19:08.537Z,9.80
2022-12-01T16:21:51.243Z,9.80
2022-12-01T16:24:26.089Z,9.80
2022-12-01T16:27:02.634Z,9.80
2022-12-01T16:29:33.593Z,9.80
2022-12-01T16:32:26.433Z,9.70
2022-12-01T16:34:53.602Z,9.70
2022-12-01T16:37:21.583Z,9.70
2022-12-01T16:39:48.763Z,9.70
2022-12-01T16:42:18.602Z,9.60
2022-12-01T16:44:46.413Z,9.70
2022-12-01T16:47:21.261Z,9.70
2022-12-01T16:49:48.415Z,9.70
2022-12-01T16:52:43.090Z,9.70
2022-12-01T16:55:02.072Z,9.70
2022-12-01T16:57:28.633Z,9.70
2022-12-01T16:59:55.264Z,9.70
2022-12-01T17:02:21.951Z,9.70
2022-12-01T17:04:48.891Z,9.70
2022-12-01T17:07:15.781Z,9.70
2022-12-01T17:09:42.393Z,9.60
2022-12-01T17:12:08.991Z,9.70
2022-12-01T17:14:36.062Z,9.70
2022-12-01T17:17:03.741Z,9.70
2022-12-01T17:19:30.347Z,9.70
2022-12-01T17:21:57.062Z,9.60
2022-12-01T17:24:23.757Z,9.60
2022-12-01T17:26:50.410Z,9.70
2022-12-01T17:29:16.987Z,9.70
2022-12-01T17:31:43.638Z,9.70
2022-12-01T17:34:10.269Z,9.70
2022-12-01T17:36:36.927Z,9.70
2022-12-01T17:39:03.816Z,9.70
2022-12-01T17:41:35.460Z,9.70
2022-12-01T17:44:04.097Z,9.60
2022-12-01T17:46:31.837Z,9.60
2022-12-01T17:48:59.218Z,9.60
2022-12-01T17:51:26.019Z,9.60
2022-12-01T17:53:53.731Z,9.60
2022-12-01T17:56:20.330Z,9.60
2022-12-01T17:58:49.232Z,9.60
2022-12-01T18:01:18.369Z,9.50
2022-12-01T18:03:45.514Z,9.50
2022-12-01T18:06:13.015Z,9.50
2022-12-01T18:08:40.631Z,9.50
2022-12-01T18:11:10.678Z,9.60
2022-12-01T18:13:42.239Z,9.50
2022-12-01T18:16:10.471Z,9.60
2022-12-01T18:18:37.918Z,9.60
2022-12-01T18:21:06.701Z,9.60
2022-12-01T18:23:33.826Z,9.50
2022-12-01T18:26:15.795Z,9.50
2022-12-01T18:28:43.677Z,9.50
2022-12-01T18:31:13.840Z,9.50
2022-12-01T18:33:42.695Z,9.60
2022-12-01T18:36:15.245Z,9.50
2022-12-01T18:38:44.545Z,9.50
2022-12-01T18:41:11.248Z,9.50
2022-12-01T18:43:37.840Z,9.50
2022-12-01T18:46:06.008Z,9.50
2022-12-01T18:48:34.875Z,9.50
2022-12-01T18:51:06.078Z,9.50
2022-12-01T18:53:33.097Z,9.50
2022-12-01T18:56:04.703Z,9.50
2022-12-01T18:58:32.046Z,9.50
2022-12-01T19:01:00.226Z,9.60
2022-12-01T19:03:31.175Z,9.60
2022-12-01T19:05:58.143Z,9.60
2022-12-01T19:08:25.274Z,9.50
2022-12-01T19:11:03.243Z,9.50
2022-12-01T19:13:32.196Z,9.50
2022-12-01T19:15:59.179Z,9.50
2022-12-01T19:18:25.807Z,9.50
2022-12-01T19:20:52.726Z,9.50
2022-12-01T19:23:19.546Z,9.50
2022-12-01T19:25:46.154Z,9.50
2022-12-01T19:28:12.743Z,9.50
2022-12-01T19:30:44.002Z,9.50
2022-12-01T19:33:15.542Z,9.40
2022-12-01T19:35:42.407Z,9.50
2022-12-01T19:38:10.409Z,9.50
2022-12-01T19:40:38.418Z,9.50
2022-12-01T19:43:06.203Z,9.50
2022-12-01T19:45:33.618Z,9.40
2022-12-01T19:48:00.331Z,9.40
2022-12-01T19:50:26.981Z,9.40
2022-12-01T19:52:53.561Z,9.40
2022-12-01T19:55:20.146Z,9.40
2022-12-01T19:57:51.340Z,9.40
2022-12-01T20:00:19.839Z,9.40
2022-12-01T20:02:46.494Z,9.40
2022-12-01T20:05:13.518Z,9.40
2022-12-01T20:07:40.289Z,9.40
2022-12-01T20:10:07.404Z,9.40
2022-12-01T20:12:34.830Z,9.40
2022-12-01T20:15:01.700Z,9.50
2022-12-01T20:17:28.281Z,9.40
2022-12-01T20:19:54.895Z,9.40
2022-12-01T20:22:21.562Z,9.40
2022-12-01T20:24:48.513Z,9.50
2022-12-01T20:27:15.301Z,9.50
2022-12-01T20:29:41.958Z,9.40
2022-12-01T20:32:08.726Z,9.40
2022-12-01T20:34:36.445Z,9.40
2022-12-01T20:37:04.349Z,9.50
2022-12-01T20:39:33.137Z,9.50
2022-12-01T20:42:00.029Z,9.50
2022-12-01T20:44:27.231Z,9.50
2022-12-01T20:46:53.927Z,9.50
2022-12-01T20:49:20.892Z,9.50
2022-12-01T20:51:47.875Z,9.50
2022-12-01T20:54:31.701Z,9.40
2022-12-01T20:56:58.755Z,9.40
2022-12-01T20:59:25.721Z,9.30
2022-12-01T21:01:55.916Z,9.30
2022-12-01T21:04:22.676Z,9.40
2022-12-01T21:06:49.941Z,9.40
2022-12-01T21:09:16.956Z,9.40
2022-12-01T21:12:07.227Z,9.50
2022-12-01T21:14:52.649Z,9.40
2022-12-01T21:17:33.097Z,9.50
2022-12-01T21:20:21.574Z,9.40
2022-12-01T21:23:00.934Z,9.50
2022-12-01T21:25:27.771Z,9.40
2022-12-01T21:27:59.681Z,9.40
2022-12-01T21:30:26.711Z,9.40
2022-12-01T21:32:53.841Z,9.40
2022-12-01T21:35:24.639Z,9.40
2022-12-01T21:37:58.128Z,9.40
2022-12-01T21:40:25.906Z,9.40
2022-12-01T21:42:52.928Z,9.50
2022-12-01T21:45:27.309Z,9.40
2022-12-01T21:47:59.665Z,9.40
2022-12-01T21:50:29.492Z,9.30
2022-12-01T21:52:58.791Z,9.30
2022-12-01T21:55:28.435Z,9.20
2022-12-01T21:57:55.163Z,9.30
2022-12-01T22:00:33.149Z,9.20
2022-12-01T22:03:02.907Z,9.20
2022-12-01T22:05:40.954Z,9.20
2022-12-01T22:08:07.723Z,9.20
2022-12-01T22:11:04.942Z,9.20
2022-12-01T22:13:50.399Z,9.30
2022-12-01T22:16:40.459Z,9.30
2022-12-01T22:19:33.294Z,9.30
2022-12-01T22:22:08.859Z,9.30
2022-12-01T22:24:40.301Z,9.30
2022-12-01T22:27:26.642Z,9.30
2022-12-01T22:29:58.554Z,9.30
2022-12-01T22:32:35.719Z,9.30
2022-12-01T22:35:20.401Z,9.30
2022-12-01T22:38:08.482Z,9.30
2022-12-01T22:40:38.562Z,9.30
2022-12-01T22:43:38.101Z,9.30
2022-12-01T22:46:15.851Z,9.30
2022-12-01T22:48:52.564Z,9.30
2022-12-01T22:51:27.287Z,9.30
2022-12-01T22:54:22.179Z,9.30
2022-12-01T22:56:50.093Z,9.30
2022-12-01T22:59:20.879Z,9.30
2022-12-01T23:01:52.306Z,9.30
2022-12-01T23:04:27.423Z,9.30
2022-12-01T23:06:58.240Z,9.30
2022-12-01T23:09:42.263Z,9.30
2022-12-01T23:12:11.648Z,9.30
2022-12-01T23:14:49.931Z,9.30
2022-12-01T23:17:29.021Z,9.30
2022-12-01T23:20:23.617Z,9.30
2022-12-01T23:22:53.778Z,9.30
2022-12-01T23:25:20.643Z,9.30
2022-12-01T23:27:50.390Z,9.20
2022-12-01T23:30:18.905Z,9.20
2022-12-01T23:32:48.391Z,9.20
2022-12-01T23:35:17.535Z,9.30
2022-12-01T23:37:47.219Z,9.30
2022-12-01T23:40:28.940Z,9.30
2022-12-01T23:43:18.667Z,9.30
2022-12-01T23:45:45.788Z,9.20
2022-12-01T23:48:21.353Z,9.20
2022-12-01T23:50:51.001Z,9.20
2022-12-01T23:53:30.734Z,9.20
2022-12-01T23:56:04.244Z,9.20
2022-12-01T23:58:30.847Z,9.20
